sensor_id;sensor_type;location;lat;lon;timestamp;P1;durP1;ratioP1;P2;durP2;ratioP2
25838;SDS011;13669;50.186;27.062;2022-10-17T00:00:51;9.13;;;4.15;;
25838;SDS011;13669;50.186;27.062;2022-10-17T00:03:18;6.10;;;3.20;;
25838;SDS011;13669;50.186;27.062;2022-10-17T00:05:46;6.15;;;2.95;;
25838;SDS011;13669;50.186;27.062;2022-10-17T00:08:15;8.27;;;3.67;;
25838;SDS011;13669;50.186;27.062;2022-10-17T00:10:43;13.57;;;6.45;;
25838;SDS011;13669;50.186;27.062;2022-10-17T00:13:11;14.85;;;7.57;;
25838;SDS011;13669;50.186;27.062;2022-10-17T00:15:42;13.57;;;7.32;;
25838;SDS011;13669;50.186;27.062;2022-10-17T00:18:10;16.92;;;7.55;;
25838;SDS011;13669;50.186;27.062;2022-10-17T00:20:38;11.82;;;6.40;;
25838;SDS011;13669;50.186;27.062;2022-10-17T00:23:05;11.70;;;7.07;;
25838;SDS011;13669;50.186;27.062;2022-10-17T00:25:32;16.65;;;6.30;;
25838;SDS011;13669;50.186;27.062;2022-10-17T00:28:00;10.65;;;5.45;;
25838;SDS011;13669;50.186;27.062;2022-10-17T00:30:27;8.35;;;4.05;;
25838;SDS011;13669;50.186;27.062;2022-10-17T00:32:55;11.50;;;4.78;;
25838;SDS011;13669;50.186;27.062;2022-10-17T00:35:22;9.05;;;4.15;;
25838;SDS011;13669;50.186;27.062;2022-10-17T00:37:50;9.98;;;4.60;;
25838;SDS011;13669;50.186;27.062;2022-10-17T00:40:17;7.03;;;4.25;;
25838;SDS011;13669;50.186;27.062;2022-10-17T00:42:45;7.82;;;3.80;;
25838;SDS011;13669;50.186;27.062;2022-10-17T00:45:14;9.52;;;4.80;;
25838;SDS011;13669;50.186;27.062;2022-10-17T00:47:52;10.30;;;4.22;;
25838;SDS011;13669;50.186;27.062;2022-10-17T00:50:34;9.85;;;4.10;;
25838;SDS011;13669;50.186;27.062;2022-10-17T00:53:05;10.53;;;4.00;;
25838;SDS011;13669;50.186;27.062;2022-10-17T00:55:41;8.50;;;4.88;;
25838;SDS011;13669;50.186;27.062;2022-10-17T00:58:14;12.20;;;5.50;;
25838;SDS011;13669;50.186;27.062;2022-10-17T01:00:42;11.85;;;5.50;;
25838;SDS011;13669;50.186;27.062;2022-10-17T01:03:11;11.18;;;5.32;;
25838;SDS011;13669;50.186;27.062;2022-10-17T01:05:39;9.50;;;4.25;;
25838;SDS011;13669;50.186;27.062;2022-10-17T01:08:07;8.30;;;4.75;;
25838;SDS011;13669;50.186;27.062;2022-10-17T01:10:58;9.00;;;4.22;;
25838;SDS011;13669;50.186;27.062;2022-10-17T01:13:41;7.38;;;3.80;;
25838;SDS011;13669;50.186;27.062;2022-10-17T01:19:29;7.75;;;3.72;;
25838;SDS011;13669;50.186;27.062;2022-10-17T01:28:14;7.90;;;3.05;;
25838;SDS011;13669;50.186;27.062;2022-10-17T01:31:06;5.10;;;2.72;;
25838;SDS011;13669;50.186;27.062;2022-10-17T01:39:21;7.55;;;3.38;;
25838;SDS011;13669;50.186;27.062;2022-10-17T01:44:48;7.55;;;2.85;;
25838;SDS011;13669;50.186;27.062;2022-10-17T01:47:22;8.60;;;3.70;;
25838;SDS011;13669;50.186;27.062;2022-10-17T01:49:55;4.53;;;2.88;;
25838;SDS011;13669;50.186;27.062;2022-10-17T01:52:28;5.65;;;2.95;;
25838;SDS011;13669;50.186;27.062;2022-10-17T01:55:08;6.75;;;3.05;;
25838;SDS011;13669;50.186;27.062;2022-10-17T01:58:02;9.27;;;4.10;;
25838;SDS011;13669;50.186;27.062;2022-10-17T02:00:38;8.32;;;3.40;;
25838;SDS011;13669;50.186;27.062;2022-10-17T02:03:08;7.22;;;3.33;;
25838;SDS011;13669;50.186;27.062;2022-10-17T02:05:39;9.82;;;3.72;;
25838;SDS011;13669;50.186;27.062;2022-10-17T02:08:08;11.88;;;4.57;;
25838;SDS011;13669;50.186;27.062;2022-10-17T02:10:38;7.28;;;4.20;;
25838;SDS011;13669;50.186;27.062;2022-10-17T02:13:19;10.23;;;4.72;;
25838;SDS011;13669;50.186;27.062;2022-10-17T02:27:26;8.35;;;3.47;;
25838;SDS011;13669;50.186;27.062;2022-10-17T02:30:00;5.38;;;3.15;;
25838;SDS011;13669;50.186;27.062;2022-10-17T02:32:46;6.40;;;2.97;;
25838;SDS011;13669;50.186;27.062;2022-10-17T02:35:20;6.77;;;3.30;;
25838;SDS011;13669;50.186;27.062;2022-10-17T02:37:50;10.43;;;3.10;;
25838;SDS011;13669;50.186;27.062;2022-10-17T02:40:19;6.88;;;3.08;;
25838;SDS011;13669;50.186;27.062;2022-10-17T02:42:48;7.22;;;3.05;;
25838;SDS011;13669;50.186;27.062;2022-10-17T02:45:18;5.43;;;2.78;;
25838;SDS011;13669;50.186;27.062;2022-10-17T02:50:27;6.25;;;3.15;;
25838;SDS011;13669;50.186;27.062;2022-10-17T02:53:29;6.05;;;2.90;;
25838;SDS011;13669;50.186;27.062;2022-10-17T02:56:21;10.73;;;3.10;;
25838;SDS011;13669;50.186;27.062;2022-10-17T02:58:53;7.30;;;3.35;;
25838;SDS011;13669;50.186;27.062;2022-10-17T03:01:23;7.40;;;2.95;;
25838;SDS011;13669;50.186;27.062;2022-10-17T03:04:03;6.68;;;3.42;;
25838;SDS011;13669;50.186;27.062;2022-10-17T03:06:31;6.93;;;3.35;;
25838;SDS011;13669;50.186;27.062;2022-10-17T03:08:59;8.55;;;4.57;;
25838;SDS011;13669;50.186;27.062;2022-10-17T03:11:26;8.25;;;4.13;;
25838;SDS011;13669;50.186;27.062;2022-10-17T03:13:54;6.18;;;3.53;;
25838;SDS011;13669;50.186;27.062;2022-10-17T03:16:22;10.15;;;4.30;;
25838;SDS011;13669;50.186;27.062;2022-10-17T03:18:49;8.35;;;3.42;;
25838;SDS011;13669;50.186;27.062;2022-10-17T03:21:16;7.05;;;3.47;;
25838;SDS011;13669;50.186;27.062;2022-10-17T03:23:44;7.78;;;3.72;;
25838;SDS011;13669;50.186;27.062;2022-10-17T03:26:11;9.30;;;3.75;;
25838;SDS011;13669;50.186;27.062;2022-10-17T03:28:39;6.95;;;3.45;;
25838;SDS011;13669;50.186;27.062;2022-10-17T03:31:08;7.55;;;3.50;;
25838;SDS011;13669;50.186;27.062;2022-10-17T03:33:36;9.82;;;3.53;;
25838;SDS011;13669;50.186;27.062;2022-10-17T03:36:05;6.68;;;3.17;;
25838;SDS011;13669;50.186;27.062;2022-10-17T03:38:33;5.22;;;2.63;;
25838;SDS011;13669;50.186;27.062;2022-10-17T03:41:02;5.90;;;3.30;;
25838;SDS011;13669;50.186;27.062;2022-10-17T03:43:30;5.40;;;3.15;;
25838;SDS011;13669;50.186;27.062;2022-10-17T03:45:58;7.43;;;3.05;;
25838;SDS011;13669;50.186;27.062;2022-10-17T03:48:28;6.55;;;2.78;;
25838;SDS011;13669;50.186;27.062;2022-10-17T03:51:00;5.90;;;3.10;;
25838;SDS011;13669;50.186;27.062;2022-10-17T03:53:29;8.00;;;3.03;;
25838;SDS011;13669;50.186;27.062;2022-10-17T03:56:07;8.13;;;2.83;;
25838;SDS011;13669;50.186;27.062;2022-10-17T03:58:42;9.63;;;3.50;;
25838;SDS011;13669;50.186;27.062;2022-10-17T04:01:10;13.80;;;3.20;;
25838;SDS011;13669;50.186;27.062;2022-10-17T04:03:40;3.73;;;2.53;;
25838;SDS011;13669;50.186;27.062;2022-10-17T04:06:10;5.72;;;3.58;;
25838;SDS011;13669;50.186;27.062;2022-10-17T04:08:38;4.07;;;2.40;;
25838;SDS011;13669;50.186;27.062;2022-10-17T04:11:07;8.02;;;2.85;;
25838;SDS011;13669;50.186;27.062;2022-10-17T04:13:35;6.20;;;3.22;;
25838;SDS011;13669;50.186;27.062;2022-10-17T04:16:03;5.53;;;3.20;;
25838;SDS011;13669;50.186;27.062;2022-10-17T04:18:32;9.73;;;3.30;;
25838;SDS011;13669;50.186;27.062;2022-10-17T04:21:01;5.45;;;3.15;;
25838;SDS011;13669;50.186;27.062;2022-10-17T04:23:29;8.15;;;3.38;;
25838;SDS011;13669;50.186;27.062;2022-10-17T04:25:57;12.63;;;7.65;;
25838;SDS011;13669;50.186;27.062;2022-10-17T04:28:25;11.45;;;6.80;;
25838;SDS011;13669;50.186;27.062;2022-10-17T04:30:55;9.38;;;6.20;;
25838;SDS011;13669;50.186;27.062;2022-10-17T04:33:26;6.93;;;3.97;;
25838;SDS011;13669;50.186;27.062;2022-10-17T04:36:04;9.43;;;4.72;;
25838;SDS011;13669;50.186;27.062;2022-10-17T04:38:33;9.13;;;3.40;;
25838;SDS011;13669;50.186;27.062;2022-10-17T04:41:01;6.88;;;3.25;;
25838;SDS011;13669;50.186;27.062;2022-10-17T04:43:34;14.80;;;5.35;;
25838;SDS011;13669;50.186;27.062;2022-10-17T04:46:04;19.05;;;6.75;;
25838;SDS011;13669;50.186;27.062;2022-10-17T04:48:33;20.13;;;6.97;;
25838;SDS011;13669;50.186;27.062;2022-10-17T04:51:02;31.75;;;8.95;;
25838;SDS011;13669;50.186;27.062;2022-10-17T04:53:33;41.15;;;12.20;;
25838;SDS011;13669;50.186;27.062;2022-10-17T04:56:12;14.07;;;5.47;;
25838;SDS011;13669;50.186;27.062;2022-10-17T04:58:44;36.95;;;11.38;;
25838;SDS011;13669;50.186;27.062;2022-10-17T05:01:15;14.15;;;4.65;;
25838;SDS011;13669;50.186;27.062;2022-10-17T05:03:44;8.13;;;3.47;;
25838;SDS011;13669;50.186;27.062;2022-10-17T05:06:13;6.93;;;3.28;;
25838;SDS011;13669;50.186;27.062;2022-10-17T05:08:43;13.30;;;4.72;;
25838;SDS011;13669;50.186;27.062;2022-10-17T05:11:20;9.02;;;3.08;;
25838;SDS011;13669;50.186;27.062;2022-10-17T05:13:57;6.07;;;3.40;;
25838;SDS011;13669;50.186;27.062;2022-10-17T05:16:27;6.45;;;2.53;;
25838;SDS011;13669;50.186;27.062;2022-10-17T05:18:55;10.65;;;3.13;;
25838;SDS011;13669;50.186;27.062;2022-10-17T05:21:25;6.00;;;3.20;;
25838;SDS011;13669;50.186;27.062;2022-10-17T05:23:53;15.60;;;5.95;;
25838;SDS011;13669;50.186;27.062;2022-10-17T05:26:21;11.75;;;5.03;;
25838;SDS011;13669;50.186;27.062;2022-10-17T05:28:49;11.57;;;6.53;;
25838;SDS011;13669;50.186;27.062;2022-10-17T05:31:18;11.00;;;4.15;;
25838;SDS011;13669;50.186;27.062;2022-10-17T05:33:46;8.02;;;4.15;;
25838;SDS011;13669;50.186;27.062;2022-10-17T05:36:13;12.65;;;4.35;;
25838;SDS011;13669;50.186;27.062;2022-10-17T05:38:41;14.35;;;4.47;;
25838;SDS011;13669;50.186;27.062;2022-10-17T05:41:08;8.52;;;3.92;;
25838;SDS011;13669;50.186;27.062;2022-10-17T05:43:36;6.35;;;3.40;;
25838;SDS011;13669;50.186;27.062;2022-10-17T05:46:04;9.18;;;3.78;;
25838;SDS011;13669;50.186;27.062;2022-10-17T05:48:32;5.65;;;3.17;;
25838;SDS011;13669;50.186;27.062;2022-10-17T05:51:01;9.80;;;4.13;;
25838;SDS011;13669;50.186;27.062;2022-10-17T05:53:35;15.60;;;5.50;;
25838;SDS011;13669;50.186;27.062;2022-10-17T05:56:05;23.70;;;10.80;;
25838;SDS011;13669;50.186;27.062;2022-10-17T05:58:34;12.23;;;5.22;;
25838;SDS011;13669;50.186;27.062;2022-10-17T06:01:16;9.82;;;4.00;;
25838;SDS011;13669;50.186;27.062;2022-10-17T06:03:44;6.20;;;3.28;;
25838;SDS011;13669;50.186;27.062;2022-10-17T06:06:12;8.18;;;3.28;;
25838;SDS011;13669;50.186;27.062;2022-10-17T06:08:40;6.60;;;3.00;;
25838;SDS011;13669;50.186;27.062;2022-10-17T06:11:09;5.80;;;2.67;;
25838;SDS011;13669;50.186;27.062;2022-10-17T06:13:37;9.77;;;3.00;;
25838;SDS011;13669;50.186;27.062;2022-10-17T06:16:05;4.57;;;2.10;;
25838;SDS011;13669;50.186;27.062;2022-10-17T06:18:33;7.82;;;3.00;;
25838;SDS011;13669;50.186;27.062;2022-10-17T06:21:01;6.25;;;2.15;;
25838;SDS011;13669;50.186;27.062;2022-10-17T06:23:30;4.90;;;2.60;;
25838;SDS011;13669;50.186;27.062;2022-10-17T06:26:00;8.55;;;3.80;;
25838;SDS011;13669;50.186;27.062;2022-10-17T06:28:29;6.25;;;3.47;;
25838;SDS011;13669;50.186;27.062;2022-10-17T06:30:57;7.38;;;3.70;;
25838;SDS011;13669;50.186;27.062;2022-10-17T06:33:25;10.65;;;3.47;;
25838;SDS011;13669;50.186;27.062;2022-10-17T06:35:53;10.07;;;4.22;;
25838;SDS011;13669;50.186;27.062;2022-10-17T06:38:21;11.52;;;4.20;;
25838;SDS011;13669;50.186;27.062;2022-10-17T06:40:49;7.88;;;2.90;;
25838;SDS011;13669;50.186;27.062;2022-10-17T06:43:17;7.35;;;2.35;;
25838;SDS011;13669;50.186;27.062;2022-10-17T06:45:44;8.88;;;2.60;;
25838;SDS011;13669;50.186;27.062;2022-10-17T06:48:13;7.28;;;3.17;;
25838;SDS011;13669;50.186;27.062;2022-10-17T06:50:40;7.80;;;2.78;;
25838;SDS011;13669;50.186;27.062;2022-10-17T06:53:08;5.38;;;2.70;;
25838;SDS011;13669;50.186;27.062;2022-10-17T06:55:35;6.20;;;2.53;;
25838;SDS011;13669;50.186;27.062;2022-10-17T06:58:03;5.10;;;2.35;;
25838;SDS011;13669;50.186;27.062;2022-10-17T07:00:30;7.75;;;2.67;;
25838;SDS011;13669;50.186;27.062;2022-10-17T07:02:57;6.30;;;2.75;;
25838;SDS011;13669;50.186;27.062;2022-10-17T07:05:25;6.28;;;3.00;;
25838;SDS011;13669;50.186;27.062;2022-10-17T07:07:52;7.65;;;3.00;;
25838;SDS011;13669;50.186;27.062;2022-10-17T07:10:20;8.75;;;3.38;;
25838;SDS011;13669;50.186;27.062;2022-10-17T07:12:47;8.32;;;3.20;;
25838;SDS011;13669;50.186;27.062;2022-10-17T07:15:15;7.28;;;3.20;;
25838;SDS011;13669;50.186;27.062;2022-10-17T07:17:42;7.38;;;3.42;;
25838;SDS011;13669;50.186;27.062;2022-10-17T07:20:09;5.75;;;2.97;;
25838;SDS011;13669;50.186;27.062;2022-10-17T07:22:37;6.15;;;3.03;;
25838;SDS011;13669;50.186;27.062;2022-10-17T07:25:05;6.28;;;3.33;;
25838;SDS011;13669;50.186;27.062;2022-10-17T07:27:33;10.75;;;3.92;;
25838;SDS011;13669;50.186;27.062;2022-10-17T07:30:00;8.63;;;3.20;;
25838;SDS011;13669;50.186;27.062;2022-10-17T07:32:27;6.18;;;3.10;;
25838;SDS011;13669;50.186;27.062;2022-10-17T07:34:55;7.28;;;2.92;;
25838;SDS011;13669;50.186;27.062;2022-10-17T07:37:22;7.82;;;3.55;;
25838;SDS011;13669;50.186;27.062;2022-10-17T07:39:50;9.65;;;3.40;;
25838;SDS011;13669;50.186;27.062;2022-10-17T07:42:17;6.05;;;3.35;;
25838;SDS011;13669;50.186;27.062;2022-10-17T07:44:44;7.70;;;3.38;;
25838;SDS011;13669;50.186;27.062;2022-10-17T07:47:13;5.80;;;3.10;;
25838;SDS011;13669;50.186;27.062;2022-10-17T07:49:40;5.35;;;2.90;;
25838;SDS011;13669;50.186;27.062;2022-10-17T07:52:10;10.07;;;3.30;;
25838;SDS011;13669;50.186;27.062;2022-10-17T07:54:41;5.93;;;3.05;;
25838;SDS011;13669;50.186;27.062;2022-10-17T07:57:09;6.25;;;3.10;;
25838;SDS011;13669;50.186;27.062;2022-10-17T07:59:36;6.85;;;3.00;;
25838;SDS011;13669;50.186;27.062;2022-10-17T08:02:04;6.13;;;2.50;;
25838;SDS011;13669;50.186;27.062;2022-10-17T08:04:33;7.93;;;3.15;;
25838;SDS011;13669;50.186;27.062;2022-10-17T08:07:02;7.07;;;4.40;;
25838;SDS011;13669;50.186;27.062;2022-10-17T08:09:46;9.68;;;4.40;;
25838;SDS011;13669;50.186;27.062;2022-10-17T08:12:14;7.75;;;3.65;;
25838;SDS011;13669;50.186;27.062;2022-10-17T08:14:42;6.78;;;3.17;;
25838;SDS011;13669;50.186;27.062;2022-10-17T08:17:09;7.60;;;3.30;;
25838;SDS011;13669;50.186;27.062;2022-10-17T08:19:37;7.25;;;3.75;;
25838;SDS011;13669;50.186;27.062;2022-10-17T08:22:06;8.85;;;4.10;;
25838;SDS011;13669;50.186;27.062;2022-10-17T08:24:34;18.05;;;6.88;;
25838;SDS011;13669;50.186;27.062;2022-10-17T08:27:01;8.63;;;3.90;;
25838;SDS011;13669;50.186;27.062;2022-10-17T08:29:30;9.43;;;4.70;;
25838;SDS011;13669;50.186;27.062;2022-10-17T08:31:58;6.93;;;3.42;;
25838;SDS011;13669;50.186;27.062;2022-10-17T08:34:28;8.70;;;3.47;;
25838;SDS011;13669;50.186;27.062;2022-10-17T08:36:56;11.25;;;4.68;;
25838;SDS011;13669;50.186;27.062;2022-10-17T08:39:23;7.40;;;4.03;;
25838;SDS011;13669;50.186;27.062;2022-10-17T08:41:53;8.25;;;4.43;;
25838;SDS011;13669;50.186;27.062;2022-10-17T08:44:59;10.45;;;4.20;;
25838;SDS011;13669;50.186;27.062;2022-10-17T08:47:44;11.65;;;5.13;;
25838;SDS011;13669;50.186;27.062;2022-10-17T08:53:11;12.27;;;5.25;;
25838;SDS011;13669;50.186;27.062;2022-10-17T08:55:53;14.00;;;4.45;;
25838;SDS011;13669;50.186;27.062;2022-10-17T08:58:22;13.70;;;5.22;;
25838;SDS011;13669;50.186;27.062;2022-10-17T09:01:01;8.65;;;3.78;;
25838;SDS011;13669;50.186;27.062;2022-10-17T09:03:48;12.32;;;3.83;;
25838;SDS011;13669;50.186;27.062;2022-10-17T09:06:36;8.27;;;4.13;;
25838;SDS011;13669;50.186;27.062;2022-10-17T09:18:06;8.98;;;3.90;;
25838;SDS011;13669;50.186;27.062;2022-10-17T09:20:37;8.57;;;3.40;;
25838;SDS011;13669;50.186;27.062;2022-10-17T09:23:25;6.78;;;3.33;;
25838;SDS011;13669;50.186;27.062;2022-10-17T09:25:57;7.35;;;3.63;;
25838;SDS011;13669;50.186;27.062;2022-10-17T09:28:33;7.30;;;4.00;;
25838;SDS011;13669;50.186;27.062;2022-10-17T09:33:49;7.15;;;4.05;;
25838;SDS011;13669;50.186;27.062;2022-10-17T09:36:27;7.53;;;3.70;;
25838;SDS011;13669;50.186;27.062;2022-10-17T09:39:03;13.10;;;4.47;;
25838;SDS011;13669;50.186;27.062;2022-10-17T09:44:20;10.90;;;5.15;;
25838;SDS011;13669;50.186;27.062;2022-10-17T09:50:00;10.75;;;4.80;;
25838;SDS011;13669;50.186;27.062;2022-10-17T09:52:35;8.18;;;4.70;;
25838;SDS011;13669;50.186;27.062;2022-10-17T09:55:19;8.55;;;4.13;;
25838;SDS011;13669;50.186;27.062;2022-10-17T09:57:58;7.70;;;4.53;;
25838;SDS011;13669;50.186;27.062;2022-10-17T10:00:31;6.93;;;4.55;;
25838;SDS011;13669;50.186;27.062;2022-10-17T10:06:04;8.93;;;4.22;;
25838;SDS011;13669;50.186;27.062;2022-10-17T10:11:21;8.50;;;4.30;;
25838;SDS011;13669;50.186;27.062;2022-10-17T10:16:48;8.15;;;3.75;;
25838;SDS011;13669;50.186;27.062;2022-10-17T10:19:23;7.85;;;4.03;;
25838;SDS011;13669;50.186;27.062;2022-10-17T10:21:56;8.68;;;4.10;;
25838;SDS011;13669;50.186;27.062;2022-10-17T10:24:28;6.72;;;3.63;;
25838;SDS011;13669;50.186;27.062;2022-10-17T10:27:00;8.50;;;3.90;;
25838;SDS011;13669;50.186;27.062;2022-10-17T10:29:33;8.98;;;4.03;;
25838;SDS011;13669;50.186;27.062;2022-10-17T10:32:28;7.80;;;3.75;;
25838;SDS011;13669;50.186;27.062;2022-10-17T10:35:15;7.68;;;4.00;;
25838;SDS011;13669;50.186;27.062;2022-10-17T10:37:57;9.27;;;3.60;;
25838;SDS011;13669;50.186;27.062;2022-10-17T10:40:29;6.40;;;3.05;;
25838;SDS011;13669;50.186;27.062;2022-10-17T10:43:26;6.32;;;3.53;;
25838;SDS011;13669;50.186;27.062;2022-10-17T10:46:00;6.55;;;3.80;;
25838;SDS011;13669;50.186;27.062;2022-10-17T10:48:48;9.98;;;3.70;;
25838;SDS011;13669;50.186;27.062;2022-10-17T10:51:40;10.00;;;3.90;;
25838;SDS011;13669;50.186;27.062;2022-10-17T10:56:45;11.27;;;4.10;;
25838;SDS011;13669;50.186;27.062;2022-10-17T10:59:30;8.68;;;4.32;;
25838;SDS011;13669;50.186;27.062;2022-10-17T11:02:16;9.48;;;3.42;;
25838;SDS011;13669;50.186;27.062;2022-10-17T11:04:51;6.90;;;3.78;;
25838;SDS011;13669;50.186;27.062;2022-10-17T11:07:48;8.80;;;3.97;;
25838;SDS011;13669;50.186;27.062;2022-10-17T11:10:52;6.80;;;3.80;;
25838;SDS011;13669;50.186;27.062;2022-10-17T11:13:35;7.15;;;3.63;;
25838;SDS011;13669;50.186;27.062;2022-10-17T11:16:13;7.28;;;3.35;;
25838;SDS011;13669;50.186;27.062;2022-10-17T11:24:45;6.43;;;3.33;;
25838;SDS011;13669;50.186;27.062;2022-10-17T11:27:27;6.57;;;3.08;;
25838;SDS011;13669;50.186;27.062;2022-10-17T11:29:56;6.60;;;3.53;;
25838;SDS011;13669;50.186;27.062;2022-10-17T11:32:33;8.63;;;3.22;;
25838;SDS011;13669;50.186;27.062;2022-10-17T11:35:23;6.03;;;3.25;;
25838;SDS011;13669;50.186;27.062;2022-10-17T11:38:13;6.30;;;3.50;;
25838;SDS011;13669;50.186;27.062;2022-10-17T11:41:01;7.43;;;2.95;;
25838;SDS011;13669;50.186;27.062;2022-10-17T11:43:41;4.28;;;2.47;;
25838;SDS011;13669;50.186;27.062;2022-10-17T11:46:17;5.75;;;2.83;;
25838;SDS011;13669;50.186;27.062;2022-10-17T11:51:27;3.90;;;2.72;;
25838;SDS011;13669;50.186;27.062;2022-10-17T11:54:21;5.82;;;3.05;;
25838;SDS011;13669;50.186;27.062;2022-10-17T11:59:57;6.90;;;2.90;;
25838;SDS011;13669;50.186;27.062;2022-10-17T12:02:41;5.00;;;2.65;;
25838;SDS011;13669;50.186;27.062;2022-10-17T12:05:33;6.15;;;3.40;;
25838;SDS011;13669;50.186;27.062;2022-10-17T12:08:23;8.35;;;4.13;;
25838;SDS011;13669;50.186;27.062;2022-10-17T12:11:08;4.32;;;2.72;;
25838;SDS011;13669;50.186;27.062;2022-10-17T12:13:53;4.18;;;2.75;;
25838;SDS011;13669;50.186;27.062;2022-10-17T12:24:31;4.55;;;3.00;;
25838;SDS011;13669;50.186;27.062;2022-10-17T12:27:44;10.10;;;2.72;;
25838;SDS011;13669;50.186;27.062;2022-10-17T12:35:40;5.25;;;2.80;;
25838;SDS011;13669;50.186;27.062;2022-10-17T12:45:46;9.55;;;4.00;;
25838;SDS011;13669;50.186;27.062;2022-10-17T12:51:08;6.70;;;2.80;;
25838;SDS011;13669;50.186;27.062;2022-10-17T12:53:59;5.00;;;3.17;;
25838;SDS011;13669;50.186;27.062;2022-10-17T12:56:35;8.45;;;4.40;;
25838;SDS011;13669;50.186;27.062;2022-10-17T12:59:08;6.78;;;3.67;;
25838;SDS011;13669;50.186;27.062;2022-10-17T13:01:46;5.47;;;3.00;;
25838;SDS011;13669;50.186;27.062;2022-10-17T13:04:17;6.15;;;2.60;;
25838;SDS011;13669;50.186;27.062;2022-10-17T13:06:46;5.05;;;3.53;;
25838;SDS011;13669;50.186;27.062;2022-10-17T13:09:26;6.05;;;2.67;;
25838;SDS011;13669;50.186;27.062;2022-10-17T13:11:57;5.10;;;3.03;;
25838;SDS011;13669;50.186;27.062;2022-10-17T13:14:28;5.88;;;2.88;;
25838;SDS011;13669;50.186;27.062;2022-10-17T13:16:59;5.78;;;2.95;;
25838;SDS011;13669;50.186;27.062;2022-10-17T13:19:29;6.50;;;3.88;;
25838;SDS011;13669;50.186;27.062;2022-10-17T13:25:06;5.95;;;2.83;;
25838;SDS011;13669;50.186;27.062;2022-10-17T13:27:39;4.03;;;2.40;;
25838;SDS011;13669;50.186;27.062;2022-10-17T13:32:58;5.10;;;2.95;;
25838;SDS011;13669;50.186;27.062;2022-10-17T13:35:34;4.78;;;3.08;;
25838;SDS011;13669;50.186;27.062;2022-10-17T13:38:28;5.57;;;3.10;;
25838;SDS011;13669;50.186;27.062;2022-10-17T13:40:59;5.93;;;3.22;;
25838;SDS011;13669;50.186;27.062;2022-10-17T13:43:48;6.60;;;2.88;;
25838;SDS011;13669;50.186;27.062;2022-10-17T13:46:23;5.10;;;3.20;;
25838;SDS011;13669;50.186;27.062;2022-10-17T13:49:10;6.82;;;3.53;;
25838;SDS011;13669;50.186;27.062;2022-10-17T13:51:47;6.07;;;3.30;;
25838;SDS011;13669;50.186;27.062;2022-10-17T13:54:38;9.02;;;3.80;;
25838;SDS011;13669;50.186;27.062;2022-10-17T13:57:27;7.07;;;4.10;;
25838;SDS011;13669;50.186;27.062;2022-10-17T13:59:59;8.07;;;4.00;;
25838;SDS011;13669;50.186;27.062;2022-10-17T14:02:39;9.53;;;3.50;;
25838;SDS011;13669;50.186;27.062;2022-10-17T14:05:17;7.88;;;4.00;;
25838;SDS011;13669;50.186;27.062;2022-10-17T14:08:02;7.25;;;3.80;;
25838;SDS011;13669;50.186;27.062;2022-10-17T14:10:43;8.73;;;3.80;;
25838;SDS011;13669;50.186;27.062;2022-10-17T14:13:18;7.90;;;4.25;;
25838;SDS011;13669;50.186;27.062;2022-10-17T14:15:52;14.75;;;6.22;;
25838;SDS011;13669;50.186;27.062;2022-10-17T14:18:25;15.18;;;7.70;;
25838;SDS011;13669;50.186;27.062;2022-10-17T14:21:01;17.05;;;8.88;;
25838;SDS011;13669;50.186;27.062;2022-10-17T14:24:11;14.25;;;7.47;;
25838;SDS011;13669;50.186;27.062;2022-10-17T14:26:56;14.10;;;7.65;;
25838;SDS011;13669;50.186;27.062;2022-10-17T14:29:31;15.95;;;7.40;;
25838;SDS011;13669;50.186;27.062;2022-10-17T14:32:17;11.73;;;6.90;;
25838;SDS011;13669;50.186;27.062;2022-10-17T14:34:45;12.15;;;6.38;;
25838;SDS011;13669;50.186;27.062;2022-10-17T14:37:23;10.32;;;6.35;;
25838;SDS011;13669;50.186;27.062;2022-10-17T14:39:58;11.25;;;5.35;;
25838;SDS011;13669;50.186;27.062;2022-10-17T14:42:27;12.93;;;6.22;;
25838;SDS011;13669;50.186;27.062;2022-10-17T14:44:56;26.15;;;10.73;;
25838;SDS011;13669;50.186;27.062;2022-10-17T14:47:30;34.63;;;17.77;;
25838;SDS011;13669;50.186;27.062;2022-10-17T14:52:37;42.78;;;20.35;;
25838;SDS011;13669;50.186;27.062;2022-10-17T14:55:22;42.08;;;22.30;;
25838;SDS011;13669;50.186;27.062;2022-10-17T14:57:51;36.80;;;18.65;;
25838;SDS011;13669;50.186;27.062;2022-10-17T15:00:19;31.35;;;14.80;;
25838;SDS011;13669;50.186;27.062;2022-10-17T15:02:48;29.63;;;13.07;;
25838;SDS011;13669;50.186;27.062;2022-10-17T15:05:16;54.00;;;19.13;;
25838;SDS011;13669;50.186;27.062;2022-10-17T15:07:45;39.55;;;14.25;;
25838;SDS011;13669;50.186;27.062;2022-10-17T15:13:02;54.63;;;21.60;;
25838;SDS011;13669;50.186;27.062;2022-10-17T15:15:50;104.40;;;38.03;;
25838;SDS011;13669;50.186;27.062;2022-10-17T15:18:18;101.75;;;41.30;;
25838;SDS011;13669;50.186;27.062;2022-10-17T15:20:45;76.93;;;33.72;;
25838;SDS011;13669;50.186;27.062;2022-10-17T15:23:21;71.95;;;30.00;;
25838;SDS011;13669;50.186;27.062;2022-10-17T15:25:48;48.95;;;20.80;;
25838;SDS011;13669;50.186;27.062;2022-10-17T15:28:15;36.88;;;14.73;;
25838;SDS011;13669;50.186;27.062;2022-10-17T15:30:43;47.90;;;17.08;;
25838;SDS011;13669;50.186;27.062;2022-10-17T15:33:10;60.83;;;20.85;;
25838;SDS011;13669;50.186;27.062;2022-10-17T15:35:38;48.80;;;18.60;;
25838;SDS011;13669;50.186;27.062;2022-10-17T15:38:05;44.75;;;19.05;;
25838;SDS011;13669;50.186;27.062;2022-10-17T15:40:34;46.97;;;18.65;;
25838;SDS011;13669;50.186;27.062;2022-10-17T15:43:01;43.17;;;17.30;;
25838;SDS011;13669;50.186;27.062;2022-10-17T15:45:29;41.58;;;16.67;;
25838;SDS011;13669;50.186;27.062;2022-10-17T15:48:01;51.08;;;22.67;;
25838;SDS011;13669;50.186;27.062;2022-10-17T15:50:31;49.63;;;21.83;;
25838;SDS011;13669;50.186;27.062;2022-10-17T15:52:59;42.10;;;15.18;;
25838;SDS011;13669;50.186;27.062;2022-10-17T15:55:26;30.00;;;12.73;;
25838;SDS011;13669;50.186;27.062;2022-10-17T15:57:54;31.52;;;12.88;;
25838;SDS011;13669;50.186;27.062;2022-10-17T16:00:22;39.10;;;16.67;;
25838;SDS011;13669;50.186;27.062;2022-10-17T16:02:50;51.03;;;22.08;;
25838;SDS011;13669;50.186;27.062;2022-10-17T16:07:51;53.35;;;21.33;;
25838;SDS011;13669;50.186;27.062;2022-10-17T16:10:20;58.15;;;22.90;;
25838;SDS011;13669;50.186;27.062;2022-10-17T16:12:48;63.35;;;25.17;;
25838;SDS011;13669;50.186;27.062;2022-10-17T16:15:18;50.67;;;21.45;;
25838;SDS011;13669;50.186;27.062;2022-10-17T16:17:51;49.38;;;20.27;;
25838;SDS011;13669;50.186;27.062;2022-10-17T16:20:21;64.43;;;24.05;;
25838;SDS011;13669;50.186;27.062;2022-10-17T16:22:50;47.72;;;19.48;;
25838;SDS011;13669;50.186;27.062;2022-10-17T16:27:51;22.60;;;9.90;;
25838;SDS011;13669;50.186;27.062;2022-10-17T16:30:20;25.88;;;10.90;;
25838;SDS011;13669;50.186;27.062;2022-10-17T16:32:50;23.90;;;10.40;;
25838;SDS011;13669;50.186;27.062;2022-10-17T16:35:22;26.42;;;10.32;;
25838;SDS011;13669;50.186;27.062;2022-10-17T16:37:58;26.95;;;8.60;;
25838;SDS011;13669;50.186;27.062;2022-10-17T16:40:26;23.25;;;8.63;;
25838;SDS011;13669;50.186;27.062;2022-10-17T16:42:53;22.95;;;8.52;;
25838;SDS011;13669;50.186;27.062;2022-10-17T16:45:21;16.83;;;7.18;;
25838;SDS011;13669;50.186;27.062;2022-10-17T16:47:49;18.83;;;7.43;;
25838;SDS011;13669;50.186;27.062;2022-10-17T16:50:16;17.20;;;7.32;;
25838;SDS011;13669;50.186;27.062;2022-10-17T16:52:44;22.65;;;7.35;;
25838;SDS011;13669;50.186;27.062;2022-10-17T16:55:11;14.80;;;6.57;;
25838;SDS011;13669;50.186;27.062;2022-10-17T16:57:41;21.33;;;7.70;;